createdAt,value
2023-04-26T00:03:23.408Z,0.80
2023-04-26T00:13:24.965Z,1.45
2023-04-26T00:23:26.679Z,1.50
2023-04-26T00:33:28.231Z,1.58
2023-04-26T00:43:29.989Z,1.25
2023-04-26T00:53:31.386Z,1.15
2023-04-26T01:03:32.932Z,1.17
2023-04-26T01:13:34.904Z,1.65
2023-04-26T01:23:36.525Z,1.38
2023-04-26T01:33:38.120Z,3.00
2023-04-26T01:43:39.550Z,1.17
2023-04-26T01:53:40.952Z,2.05
2023-04-26T02:03:42.609Z,3.17
2023-04-26T02:13:44.156Z,1.58
2023-04-26T02:23:45.700Z,2.78
2023-04-26T02:33:47.076Z,5.50
2023-04-26T02:43:48.499Z,5.63
2023-04-26T02:53:49.889Z,11.05
2023-04-26T03:03:51.983Z,17.05
2023-04-26T03:13:53.446Z,13.40
2023-04-26T03:23:54.811Z,36.33
2023-04-26T03:33:56.175Z,34.97
2023-04-26T03:43:57.565Z,46.97
2023-04-26T03:53:59.270Z,108.55
2023-04-26T04:04:00.991Z,76.68
2023-04-26T04:14:03.017Z,96.38
2023-04-26T04:24:04.705Z,77.88
2023-04-26T04:34:06.085Z,76.20
2023-04-26T04:44:07.463Z,74.00
2023-04-26T04:54:18.197Z,48.88
2023-04-26T05:04:19.785Z,57.42
2023-04-26T05:14:21.824Z,52.80
2023-04-26T05:24:23.361Z,40.50
2023-04-26T05:34:24.829Z,27.23
2023-04-26T05:44:26.245Z,21.75
2023-04-26T05:54:27.820Z,28.23
2023-04-26T06:04:29.351Z,20.15
2023-04-26T06:14:31.110Z,1.27
2023-04-26T06:24:32.596Z,1.08
2023-04-26T06:34:33.981Z,0.55
2023-04-26T06:44:35.518Z,0.50
2023-04-26T06:54:45.894Z,0.57
2023-04-26T07:04:51.771Z,0.57
2023-04-26T07:14:53.350Z,0.40
2023-04-26T07:24:54.914Z,0.30
2023-04-26T07:34:56.490Z,0.20
2023-04-26T07:44:57.907Z,0.10
2023-04-26T07:54:59.441Z,0.10
2023-04-26T08:05:00.990Z,0.40
2023-04-26T08:15:04.538Z,0.32
2023-04-26T08:25:06.559Z,0.30
2023-04-26T08:35:09.450Z,0.20
2023-04-26T08:45:13.988Z,0.28
2023-04-26T08:55:16.454Z,0.20
2023-04-26T09:05:24.869Z,0.30
2023-04-26T09:15:27.173Z,0.20
2023-04-26T09:25:29.546Z,0.20
2023-04-26T09:35:41.103Z,0.20
2023-04-26T09:45:51.117Z,0.15
2023-04-26T09:55:54.108Z,0.17
2023-04-26T10:05:56.030Z,0.95
2023-04-26T10:15:57.485Z,0.20
2023-04-26T10:25:58.906Z,0.30
2023-04-26T10:36:08.048Z,0.10
2023-04-26T10:46:33.236Z,0.25
2023-04-26T10:56:37.594Z,0.10
2023-04-26T11:06:52.755Z,0.30
2023-04-26T11:16:54.171Z,0.28
2023-04-26T11:26:55.578Z,0.47
2023-04-26T11:36:56.990Z,0.30
2023-04-26T11:46:58.778Z,0.10
2023-04-26T11:57:00.177Z,0.17
2023-04-26T12:07:03.902Z,0.20
2023-04-26T12:17:06.296Z,0.20
2023-04-26T12:27:07.881Z,0.28
2023-04-26T12:37:09.282Z,0.20
2023-04-26T12:47:10.698Z,0.00
2023-04-26T12:57:12.232Z,0.20
2023-04-26T13:07:13.670Z,0.63
2023-04-26T13:17:15.647Z,0.17
2023-04-26T13:27:17.045Z,0.40
2023-04-26T13:37:22.508Z,0.30
2023-04-26T13:47:23.965Z,0.20
2023-04-26T13:57:25.575Z,0.10
2023-04-26T14:07:27.178Z,0.35
2023-04-26T14:17:29.213Z,0.40
2023-04-26T14:27:30.676Z,0.38
2023-04-26T14:37:32.130Z,2.03
2023-04-26T14:47:33.550Z,0.30
2023-04-26T14:57:35.027Z,0.43
2023-04-26T15:07:37.318Z,0.50
2023-04-26T15:17:38.934Z,0.40
2023-04-26T15:27:41.002Z,0.40
2023-04-26T15:37:44.108Z,0.38
2023-04-26T15:47:46.039Z,0.22
2023-04-26T15:57:47.497Z,0.22
2023-04-26T16:07:48.929Z,0.20
2023-04-26T16:17:50.559Z,0.20
2023-04-26T16:27:51.968Z,0.50
2023-04-26T16:37:53.352Z,0.25
2023-04-26T16:47:55.252Z,0.17
2023-04-26T16:57:56.718Z,0.20
2023-04-26T17:07:58.153Z,0.40
2023-04-26T17:18:01.329Z,0.43
2023-04-26T17:28:03.345Z,1.00
2023-04-26T17:38:04.922Z,0.47
2023-04-26T17:48:10.886Z,2.08
2023-04-26T17:58:12.361Z,5.13
2023-04-26T18:08:13.919Z,5.38
2023-04-26T18:18:15.408Z,1.35
2023-04-26T18:28:17.030Z,4.68
2023-04-26T18:38:18.716Z,15.13
2023-04-26T18:48:20.270Z,14.30
2023-04-26T18:58:21.858Z,6.80
2023-04-26T19:08:25.213Z,20.48
2023-04-26T19:18:27.127Z,23.63
2023-04-26T19:28:28.520Z,21.27
2023-04-26T19:38:30.078Z,46.58
2023-04-26T19:48:31.462Z,62.63
2023-04-26T19:58:32.874Z,203.90
2023-04-26T20:08:34.510Z,223.80
2023-04-26T20:18:36.394Z,68.45
2023-04-26T20:28:39.928Z,102.30
2023-04-26T20:38:41.635Z,206.85
2023-04-26T20:48:43.157Z,451.23
2023-04-26T20:58:44.586Z,194.32
2023-04-26T21:08:46.215Z,178.32
2023-04-26T21:18:47.602Z,107.30
2023-04-26T21:28:49.046Z,11.05
2023-04-26T21:38:50.462Z,5.85
2023-04-26T21:48:51.855Z,4.95
2023-04-26T21:58:53.247Z,5.60
2023-04-26T22:08:54.621Z,1.75
2023-04-26T22:18:57.145Z,2.55
2023-04-26T22:28:58.741Z,1.83
2023-04-26T22:39:00.254Z,1.63
2023-04-26T22:49:01.645Z,1.73
2023-04-26T22:59:03.157Z,0.43
2023-04-26T23:09:04.691Z,0.77
2023-04-26T23:19:06.087Z,1.00
2023-04-26T23:29:07.619Z,0.32
2023-04-26T23:39:09.042Z,1.10
2023-04-26T23:49:10.512Z,0.52
2023-04-26T23:59:12.149Z,0.40
